sensor_id;sensor_type;location;lat;lon;timestamp;temperature;humidity
77829;DHT22;67019;51.034;3.728;2023-02-23T00:35:31;7.70;99.90
77829;DHT22;67019;51.034;3.728;2023-02-23T02:41:12;8.60;96.00
77829;DHT22;67019;51.034;3.728;2023-02-23T03:20:56;8.00;98.10
77829;DHT22;67019;51.034;3.728;2023-02-23T03:49:47;7.60;99.00
77829;DHT22;67019;51.034;3.728;2023-02-23T04:07:53;7.00;99.90
77829;DHT22;67019;51.034;3.728;2023-02-23T06:47:28;7.10;99.90
77829;DHT22;67019;51.034;3.728;2023-02-23T06:49:57;7.00;99.90
77829;DHT22;67019;51.034;3.728;2023-02-23T06:52:25;7.10;99.90
77829;DHT22;67019;51.034;3.728;2023-02-23T06:54:53;7.10;99.90
77829;DHT22;67019;51.034;3.728;2023-02-23T06:57:20;7.10;99.90
77829;DHT22;67019;51.034;3.728;2023-02-23T06:59:48;7.20;99.90
77829;DHT22;67019;51.034;3.728;2023-02-23T07:02:16;7.30;99.90
77829;DHT22;67019;51.034;3.728;2023-02-23T07:04:44;7.70;99.90
77829;DHT22;67019;51.034;3.728;2023-02-23T07:07:12;8.30;98.40
77829;DHT22;67019;51.034;3.728;2023-02-23T07:09:40;8.70;96.00
77829;DHT22;67019;51.034;3.728;2023-02-23T07:12:10;8.80;95.50
77829;DHT22;67019;51.034;3.728;2023-02-23T07:14:38;8.60;95.60
77829;DHT22;67019;51.034;3.728;2023-02-23T07:17:07;8.30;96.90
77829;DHT22;67019;51.034;3.728;2023-02-23T07:19:35;8.50;96.60
77829;DHT22;67019;51.034;3.728;2023-02-23T07:22:03;8.70;95.90
77829;DHT22;67019;51.034;3.728;2023-02-23T07:24:31;8.50;96.20
77829;DHT22;67019;51.034;3.728;2023-02-23T07:26:59;8.50;96.70
77829;DHT22;67019;51.034;3.728;2023-02-23T07:29:26;9.00;95.30
77829;DHT22;67019;51.034;3.728;2023-02-23T07:31:54;9.00;94.90
77829;DHT22;67019;51.034;3.728;2023-02-23T07:34:22;8.80;94.90
77829;DHT22;67019;51.034;3.728;2023-02-23T07:36:50;8.40;96.00
77829;DHT22;67019;51.034;3.728;2023-02-23T07:39:17;8.10;97.00
77829;DHT22;67019;51.034;3.728;2023-02-23T07:41:45;8.30;97.20
77829;DHT22;67019;51.034;3.728;2023-02-23T07:44:13;8.60;96.80
77829;DHT22;67019;51.034;3.728;2023-02-23T07:46:41;8.90;95.90
77829;DHT22;67019;51.034;3.728;2023-02-23T07:49:10;9.10;95.00
77829;DHT22;67019;51.034;3.728;2023-02-23T07:51:38;9.00;94.70
77829;DHT22;67019;51.034;3.728;2023-02-23T07:54:06;8.60;95.30
77829;DHT22;67019;51.034;3.728;2023-02-23T07:56:34;8.00;97.20
77829;DHT22;67019;51.034;3.728;2023-02-23T07:59:02;8.10;97.50
77829;DHT22;67019;51.034;3.728;2023-02-23T08:01:30;8.00;98.00
77829;DHT22;67019;51.034;3.728;2023-02-23T08:03:57;8.20;97.90
77829;DHT22;67019;51.034;3.728;2023-02-23T08:06:25;9.90;96.60
77829;DHT22;67019;51.034;3.728;2023-02-23T08:08:53;8.70;95.60
77829;DHT22;67019;51.034;3.728;2023-02-23T08:11:22;8.80;95.30
77829;DHT22;67019;51.034;3.728;2023-02-23T08:13:50;8.80;95.00
77829;DHT22;67019;51.034;3.728;2023-02-23T08:16:17;8.70;95.20
77829;DHT22;67019;51.034;3.728;2023-02-23T08:18:45;8.70;95.50
77829;DHT22;67019;51.034;3.728;2023-02-23T08:21:14;8.80;95.00
77829;DHT22;67019;51.034;3.728;2023-02-23T08:23:42;8.80;94.90
77829;DHT22;67019;51.034;3.728;2023-02-23T08:26:10;9.10;95.00
77829;DHT22;67019;51.034;3.728;2023-02-23T08:28:37;9.10;94.50
77829;DHT22;67019;51.034;3.728;2023-02-23T08:31:11;9.20;94.50
77829;DHT22;67019;51.034;3.728;2023-02-23T08:33:39;9.10;94.30
77829;DHT22;67019;51.034;3.728;2023-02-23T08:36:07;9.10;94.40
77829;DHT22;67019;51.034;3.728;2023-02-23T08:38:35;9.20;93.90
77829;DHT22;67019;51.034;3.728;2023-02-23T08:41:04;9.20;94.20
77829;DHT22;67019;51.034;3.728;2023-02-23T08:43:32;9.40;94.00
77829;DHT22;67019;51.034;3.728;2023-02-23T08:45:59;9.30;93.80
77829;DHT22;67019;51.034;3.728;2023-02-23T08:48:27;9.40;93.50
77829;DHT22;67019;51.034;3.728;2023-02-23T08:50:56;9.60;93.10
77829;DHT22;67019;51.034;3.728;2023-02-23T08:53:27;9.60;93.40
77829;DHT22;67019;51.034;3.728;2023-02-23T08:55:59;9.60;93.20
77829;DHT22;67019;51.034;3.728;2023-02-23T08:58:28;9.70;93.10
77829;DHT22;67019;51.034;3.728;2023-02-23T09:00:57;9.80;93.00
77829;DHT22;67019;51.034;3.728;2023-02-23T09:03:26;9.90;92.70
77829;DHT22;67019;51.034;3.728;2023-02-23T09:05:55;9.30;93.90
77829;DHT22;67019;51.034;3.728;2023-02-23T09:08:23;9.20;94.20
77829;DHT22;67019;51.034;3.728;2023-02-23T09:10:51;9.50;93.70
77829;DHT22;67019;51.034;3.728;2023-02-23T09:13:19;9.40;93.30
77829;DHT22;67019;51.034;3.728;2023-02-23T09:15:46;8.90;94.80
77829;DHT22;67019;51.034;3.728;2023-02-23T09:18:14;9.00;95.00
77829;DHT22;67019;51.034;3.728;2023-02-23T09:20:43;9.20;94.20
77829;DHT22;67019;51.034;3.728;2023-02-23T09:23:11;9.70;93.10
77829;DHT22;67019;51.034;3.728;2023-02-23T09:25:42;9.90;92.60
77829;DHT22;67019;51.034;3.728;2023-02-23T09:28:13;9.90;92.20
77829;DHT22;67019;51.034;3.728;2023-02-23T09:30:40;9.70;92.30
77829;DHT22;67019;51.034;3.728;2023-02-23T09:33:08;9.60;93.10
77829;DHT22;67019;51.034;3.728;2023-02-23T09:35:36;9.90;92.90
77829;DHT22;67019;51.034;3.728;2023-02-23T09:38:06;9.70;92.60
77829;DHT22;67019;51.034;3.728;2023-02-23T09:40:48;9.90;92.70
77829;DHT22;67019;51.034;3.728;2023-02-23T09:43:47;9.80;92.70
77829;DHT22;67019;51.034;3.728;2023-02-23T09:48:47;10.10;92.10
77829;DHT22;67019;51.034;3.728;2023-02-23T09:51:18;10.10;92.30
77829;DHT22;67019;51.034;3.728;2023-02-23T09:53:54;10.10;91.80
77829;DHT22;67019;51.034;3.728;2023-02-23T09:56:35;10.00;92.30
77829;DHT22;67019;51.034;3.728;2023-02-23T09:59:04;10.30;91.80
77829;DHT22;67019;51.034;3.728;2023-02-23T10:01:47;10.10;92.00
77829;DHT22;67019;51.034;3.728;2023-02-23T10:12:49;9.80;93.20
77829;DHT22;67019;51.034;3.728;2023-02-23T10:21:06;10.30;92.00
77829;DHT22;67019;51.034;3.728;2023-02-23T10:23:44;10.30;92.30
77829;DHT22;67019;51.034;3.728;2023-02-23T10:26:24;10.40;92.60
77829;DHT22;67019;51.034;3.728;2023-02-23T10:28:50;10.60;91.70
77829;DHT22;67019;51.034;3.728;2023-02-23T10:33:59;10.60;92.20
77829;DHT22;67019;51.034;3.728;2023-02-23T10:36:32;10.90;91.30
77829;DHT22;67019;51.034;3.728;2023-02-23T10:38:59;11.30;90.10
77829;DHT22;67019;51.034;3.728;2023-02-23T10:41:26;11.20;90.00
77829;DHT22;67019;51.034;3.728;2023-02-23T10:43:54;11.10;90.50
77829;DHT22;67019;51.034;3.728;2023-02-23T10:46:27;11.30;90.20
77829;DHT22;67019;51.034;3.728;2023-02-23T10:48:55;11.50;88.70
77829;DHT22;67019;51.034;3.728;2023-02-23T10:51:36;11.40;88.30
77829;DHT22;67019;51.034;3.728;2023-02-23T10:53:58;11.60;87.10
77829;DHT22;67019;51.034;3.728;2023-02-23T10:56:26;11.60;88.00
77829;DHT22;67019;51.034;3.728;2023-02-23T10:58:57;11.20;89.80
77829;DHT22;67019;51.034;3.728;2023-02-23T11:01:41;11.10;90.00
77829;DHT22;67019;51.034;3.728;2023-02-23T11:04:32;11.10;88.60
77829;DHT22;67019;51.034;3.728;2023-02-23T11:07:08;11.00;89.60
77829;DHT22;67019;51.034;3.728;2023-02-23T11:09:36;10.60;90.80
77829;DHT22;67019;51.034;3.728;2023-02-23T11:12:26;10.40;91.60
77829;DHT22;67019;51.034;3.728;2023-02-23T11:14:56;10.20;91.60
77829;DHT22;67019;51.034;3.728;2023-02-23T11:17:26;10.10;92.20
77829;DHT22;67019;51.034;3.728;2023-02-23T11:20:01;10.30;91.10
77829;DHT22;67019;51.034;3.728;2023-02-23T11:22:34;10.50;90.60
77829;DHT22;67019;51.034;3.728;2023-02-23T11:24:57;10.30;91.10
77829;DHT22;67019;51.034;3.728;2023-02-23T11:27:26;10.20;91.30
77829;DHT22;67019;51.034;3.728;2023-02-23T11:29:55;10.00;92.20
77829;DHT22;67019;51.034;3.728;2023-02-23T11:32:31;9.80;92.50
77829;DHT22;67019;51.034;3.728;2023-02-23T11:37:49;10.00;92.40
77829;DHT22;67019;51.034;3.728;2023-02-23T11:40:22;10.10;92.20
77829;DHT22;67019;51.034;3.728;2023-02-23T11:43:06;9.90;92.70
77829;DHT22;67019;51.034;3.728;2023-02-23T11:45:29;9.90;92.60
77829;DHT22;67019;51.034;3.728;2023-02-23T11:48:03;9.90;92.50
77829;DHT22;67019;51.034;3.728;2023-02-23T11:50:33;10.10;92.00
77829;DHT22;67019;51.034;3.728;2023-02-23T11:53:10;10.00;92.30
77829;DHT22;67019;51.034;3.728;2023-02-23T11:55:37;10.30;92.10
77829;DHT22;67019;51.034;3.728;2023-02-23T11:58:35;10.50;91.00
77829;DHT22;67019;51.034;3.728;2023-02-23T12:00:39;10.70;88.80
77829;DHT22;67019;51.034;3.728;2023-02-23T12:03:11;10.50;90.20
77829;DHT22;67019;51.034;3.728;2023-02-23T12:05:36;10.50;90.00
77829;DHT22;67019;51.034;3.728;2023-02-23T12:10:44;10.50;90.00
77829;DHT22;67019;51.034;3.728;2023-02-23T12:13:31;10.50;89.40
77829;DHT22;67019;51.034;3.728;2023-02-23T12:16:02;10.60;89.50
77829;DHT22;67019;51.034;3.728;2023-02-23T12:18:32;10.90;88.60
77829;DHT22;67019;51.034;3.728;2023-02-23T12:21:08;11.10;86.40
77829;DHT22;67019;51.034;3.728;2023-02-23T12:23:28;10.90;87.10
77829;DHT22;67019;51.034;3.728;2023-02-23T12:26:18;11.00;86.80
77829;DHT22;67019;51.034;3.728;2023-02-23T12:28:42;11.30;87.80
77829;DHT22;67019;51.034;3.728;2023-02-23T12:31:28;11.40;85.00
77829;DHT22;67019;51.034;3.728;2023-02-23T12:34:01;11.80;84.20
77829;DHT22;67019;51.034;3.728;2023-02-23T12:36:54;11.20;84.60
77829;DHT22;67019;51.034;3.728;2023-02-23T12:39:27;11.20;85.40
77829;DHT22;67019;51.034;3.728;2023-02-23T12:42:21;11.10;86.60
77829;DHT22;67019;51.034;3.728;2023-02-23T12:45:04;11.20;83.80
77829;DHT22;67019;51.034;3.728;2023-02-23T12:47:43;11.20;84.90
77829;DHT22;67019;51.034;3.728;2023-02-23T12:52:55;11.30;83.90
77829;DHT22;67019;51.034;3.728;2023-02-23T12:55:42;11.30;83.40
77829;DHT22;67019;51.034;3.728;2023-02-23T13:00:55;11.20;83.90
77829;DHT22;67019;51.034;3.728;2023-02-23T13:06:19;11.30;83.70
77829;DHT22;67019;51.034;3.728;2023-02-23T13:16:56;11.50;82.40
77829;DHT22;67019;51.034;3.728;2023-02-23T13:19:36;11.70;80.30
77829;DHT22;67019;51.034;3.728;2023-02-23T13:24:36;12.00;79.70
77829;DHT22;67019;51.034;3.728;2023-02-23T13:29:54;12.10;76.80
77829;DHT22;67019;51.034;3.728;2023-02-23T13:32:27;12.00;78.10
77829;DHT22;67019;51.034;3.728;2023-02-23T13:35:05;11.70;80.30
77829;DHT22;67019;51.034;3.728;2023-02-23T13:37:34;11.70;81.00
77829;DHT22;67019;51.034;3.728;2023-02-23T13:43:08;11.50;81.00
77829;DHT22;67019;51.034;3.728;2023-02-23T13:45:49;11.40;81.90
77829;DHT22;67019;51.034;3.728;2023-02-23T13:51:06;11.10;82.10
77829;DHT22;67019;51.034;3.728;2023-02-23T13:53:37;11.10;83.00
77829;DHT22;67019;51.034;3.728;2023-02-23T13:56:10;11.10;82.90
77829;DHT22;67019;51.034;3.728;2023-02-23T13:58:44;11.10;82.60
77829;DHT22;67019;51.034;3.728;2023-02-23T14:01:15;11.20;81.80
77829;DHT22;67019;51.034;3.728;2023-02-23T14:06:23;11.70;79.80
77829;DHT22;67019;51.034;3.728;2023-02-23T14:09:08;11.60;80.60
77829;DHT22;67019;51.034;3.728;2023-02-23T14:11:45;11.70;78.40
77829;DHT22;67019;51.034;3.728;2023-02-23T14:14:36;11.60;79.80
77829;DHT22;67019;51.034;3.728;2023-02-23T14:16:43;11.70;79.10
77829;DHT22;67019;51.034;3.728;2023-02-23T14:19:35;11.80;79.60
77829;DHT22;67019;51.034;3.728;2023-02-23T14:21:50;11.80;78.90
77829;DHT22;67019;51.034;3.728;2023-02-23T14:24:23;11.50;79.50
77829;DHT22;67019;51.034;3.728;2023-02-23T14:29:37;11.40;81.60
77829;DHT22;67019;51.034;3.728;2023-02-23T14:34:46;11.40;80.80
77829;DHT22;67019;51.034;3.728;2023-02-23T14:37:22;11.40;81.30
77829;DHT22;67019;51.034;3.728;2023-02-23T14:39:50;11.20;81.50
77829;DHT22;67019;51.034;3.728;2023-02-23T14:42:22;11.30;82.20
77829;DHT22;67019;51.034;3.728;2023-02-23T14:44:52;11.40;81.40
77829;DHT22;67019;51.034;3.728;2023-02-23T14:47:25;11.80;79.40
77829;DHT22;67019;51.034;3.728;2023-02-23T14:49:56;11.60;79.60
77829;DHT22;67019;51.034;3.728;2023-02-23T14:52:27;11.70;77.80
77829;DHT22;67019;51.034;3.728;2023-02-23T14:55:07;11.90;77.60
77829;DHT22;67019;51.034;3.728;2023-02-23T14:57:36;11.70;77.00
77829;DHT22;67019;51.034;3.728;2023-02-23T15:00:25;11.60;77.40
77829;DHT22;67019;51.034;3.728;2023-02-23T15:03:01;11.30;78.30
77829;DHT22;67019;51.034;3.728;2023-02-23T15:05:32;11.30;79.00
77829;DHT22;67019;51.034;3.728;2023-02-23T15:08:02;11.30;78.50
77829;DHT22;67019;51.034;3.728;2023-02-23T15:10:39;11.30;78.40
77829;DHT22;67019;51.034;3.728;2023-02-23T15:13:11;11.30;78.10
77829;DHT22;67019;51.034;3.728;2023-02-23T15:15:44;11.30;77.50
77829;DHT22;67019;51.034;3.728;2023-02-23T15:18:19;11.10;78.70
77829;DHT22;67019;51.034;3.728;2023-02-23T15:20:46;11.30;77.90
77829;DHT22;67019;51.034;3.728;2023-02-23T15:23:16;11.40;77.40
77829;DHT22;67019;51.034;3.728;2023-02-23T15:25:44;11.40;77.20
77829;DHT22;67019;51.034;3.728;2023-02-23T15:28:25;11.40;78.50
77829;DHT22;67019;51.034;3.728;2023-02-23T15:30:58;11.30;78.50
77829;DHT22;67019;51.034;3.728;2023-02-23T15:33:25;11.00;80.50
77829;DHT22;67019;51.034;3.728;2023-02-23T15:36:12;10.80;82.40
77829;DHT22;67019;51.034;3.728;2023-02-23T15:38:42;11.00;79.80
77829;DHT22;67019;51.034;3.728;2023-02-23T15:41:14;11.00;80.10
77829;DHT22;67019;51.034;3.728;2023-02-23T15:43:42;11.10;79.80
77829;DHT22;67019;51.034;3.728;2023-02-23T15:46:14;11.20;79.80
77829;DHT22;67019;51.034;3.728;2023-02-23T15:48:44;11.10;79.80
77829;DHT22;67019;51.034;3.728;2023-02-23T15:51:35;11.10;80.50
77829;DHT22;67019;51.034;3.728;2023-02-23T15:54:11;11.20;80.20
77829;DHT22;67019;51.034;3.728;2023-02-23T15:56:36;11.00;81.70
77829;DHT22;67019;51.034;3.728;2023-02-23T15:59:11;10.80;82.50
77829;DHT22;67019;51.034;3.728;2023-02-23T16:01:43;10.70;81.50
77829;DHT22;67019;51.034;3.728;2023-02-23T16:06:51;10.70;80.50
77829;DHT22;67019;51.034;3.728;2023-02-23T16:12:02;10.70;81.40
77829;DHT22;67019;51.034;3.728;2023-02-23T16:14:41;10.50;83.30
77829;DHT22;67019;51.034;3.728;2023-02-23T16:17:01;10.50;82.90
77829;DHT22;67019;51.034;3.728;2023-02-23T16:19:30;10.50;82.50
77829;DHT22;67019;51.034;3.728;2023-02-23T16:21:58;10.40;83.60
77829;DHT22;67019;51.034;3.728;2023-02-23T16:24:29;10.40;83.50
77829;DHT22;67019;51.034;3.728;2023-02-23T16:26:59;10.30;86.20
77829;DHT22;67019;51.034;3.728;2023-02-23T16:29:32;10.20;83.80
77829;DHT22;67019;51.034;3.728;2023-02-23T16:32:08;10.30;83.50
77829;DHT22;67019;51.034;3.728;2023-02-23T16:34:43;10.20;84.90
77829;DHT22;67019;51.034;3.728;2023-02-23T16:37:15;10.20;84.40
77829;DHT22;67019;51.034;3.728;2023-02-23T16:39:47;10.10;84.90
77829;DHT22;67019;51.034;3.728;2023-02-23T16:42:32;10.00;85.30
77829;DHT22;67019;51.034;3.728;2023-02-23T16:45:02;9.90;86.00
77829;DHT22;67019;51.034;3.728;2023-02-23T16:47:33;9.70;87.10
77829;DHT22;67019;51.034;3.728;2023-02-23T16:50:17;9.70;87.30
77829;DHT22;67019;51.034;3.728;2023-02-23T16:52:45;9.60;88.70
77829;DHT22;67019;51.034;3.728;2023-02-23T16:55:14;9.70;88.00
77829;DHT22;67019;51.034;3.728;2023-02-23T16:57:47;9.70;89.50
77829;DHT22;67019;51.034;3.728;2023-02-23T17:00:24;9.60;89.50
77829;DHT22;67019;51.034;3.728;2023-02-23T17:02:52;9.60;89.60
77829;DHT22;67019;51.034;3.728;2023-02-23T17:05:21;9.40;90.70
77829;DHT22;67019;51.034;3.728;2023-02-23T17:07:52;9.50;90.40
77829;DHT22;67019;51.034;3.728;2023-02-23T17:10:23;9.50;90.80
77829;DHT22;67019;51.034;3.728;2023-02-23T17:12:51;9.40;90.50
77829;DHT22;67019;51.034;3.728;2023-02-23T17:15:19;9.40;90.60
77829;DHT22;67019;51.034;3.728;2023-02-23T17:17:47;9.30;90.90
77829;DHT22;67019;51.034;3.728;2023-02-23T17:20:13;9.20;90.70
77829;DHT22;67019;51.034;3.728;2023-02-23T17:22:43;9.30;90.70
77829;DHT22;67019;51.034;3.728;2023-02-23T17:25:12;9.30;91.00
77829;DHT22;67019;51.034;3.728;2023-02-23T17:27:38;9.40;90.30
77829;DHT22;67019;51.034;3.728;2023-02-23T17:30:06;9.30;90.50
77829;DHT22;67019;51.034;3.728;2023-02-23T17:32:34;9.20;90.70
77829;DHT22;67019;51.034;3.728;2023-02-23T17:35:02;9.10;91.40
77829;DHT22;67019;51.034;3.728;2023-02-23T17:37:29;9.10;91.30
77829;DHT22;67019;51.034;3.728;2023-02-23T17:39:57;9.10;91.40
77829;DHT22;67019;51.034;3.728;2023-02-23T17:42:27;9.20;91.00
77829;DHT22;67019;51.034;3.728;2023-02-23T17:44:52;9.10;91.40
77829;DHT22;67019;51.034;3.728;2023-02-23T17:47:19;9.30;91.30
77829;DHT22;67019;51.034;3.728;2023-02-23T17:49:46;9.20;91.20
77829;DHT22;67019;51.034;3.728;2023-02-23T17:52:13;9.10;91.30
77829;DHT22;67019;51.034;3.728;2023-02-23T17:54:40;9.20;91.30
77829;DHT22;67019;51.034;3.728;2023-02-23T17:57:07;9.20;91.40
77829;DHT22;67019;51.034;3.728;2023-02-23T17:59:34;9.10;91.50
77829;DHT22;67019;51.034;3.728;2023-02-23T18:02:01;9.10;91.40
77829;DHT22;67019;51.034;3.728;2023-02-23T18:04:29;8.90;92.00
77829;DHT22;67019;51.034;3.728;2023-02-23T18:06:56;9.10;91.30
77829;DHT22;67019;51.034;3.728;2023-02-23T18:09:24;8.90;91.70
77829;DHT22;67019;51.034;3.728;2023-02-23T18:11:52;8.90;91.80
77829;DHT22;67019;51.034;3.728;2023-02-23T18:14:21;9.00;91.60
77829;DHT22;67019;51.034;3.728;2023-02-23T18:16:48;9.10;91.50
77829;DHT22;67019;51.034;3.728;2023-02-23T18:19:15;9.00;91.70
77829;DHT22;67019;51.034;3.728;2023-02-23T18:21:42;8.90;91.90
77829;DHT22;67019;51.034;3.728;2023-02-23T18:24:10;8.90;92.10
77829;DHT22;67019;51.034;3.728;2023-02-23T18:26:38;8.90;91.80
77829;DHT22;67019;51.034;3.728;2023-02-23T18:29:05;8.90;91.90
77829;DHT22;67019;51.034;3.728;2023-02-23T18:31:32;8.80;91.80
77829;DHT22;67019;51.034;3.728;2023-02-23T18:34:00;8.70;92.50
77829;DHT22;67019;51.034;3.728;2023-02-23T18:36:32;8.80;92.50
77829;DHT22;67019;51.034;3.728;2023-02-23T18:38:55;8.80;92.10
77829;DHT22;67019;51.034;3.728;2023-02-23T18:41:23;8.80;92.20
77829;DHT22;67019;51.034;3.728;2023-02-23T18:43:52;8.50;92.60
77829;DHT22;67019;51.034;3.728;2023-02-23T18:46:19;8.40;92.50
77829;DHT22;67019;51.034;3.728;2023-02-23T18:48:47;8.40;92.60
77829;DHT22;67019;51.034;3.728;2023-02-23T18:51:18;8.40;92.20
77829;DHT22;67019;51.034;3.728;2023-02-23T18:53:45;8.20;92.40
77829;DHT22;67019;51.034;3.728;2023-02-23T18:56:13;8.20;92.80
77829;DHT22;67019;51.034;3.728;2023-02-23T18:58:43;8.30;92.60
77829;DHT22;67019;51.034;3.728;2023-02-23T19:01:15;8.40;92.50
77829;DHT22;67019;51.034;3.728;2023-02-23T19:03:38;8.40;92.50
77829;DHT22;67019;51.034;3.728;2023-02-23T19:06:07;8.30;92.50
77829;DHT22;67019;51.034;3.728;2023-02-23T19:08:37;8.20;92.60
77829;DHT22;67019;51.034;3.728;2023-02-23T19:11:04;8.10;92.70
77829;DHT22;67019;51.034;3.728;2023-02-23T19:13:33;8.20;92.30
77829;DHT22;67019;51.034;3.728;2023-02-23T19:16:02;8.10;92.10
77829;DHT22;67019;51.034;3.728;2023-02-23T19:18:30;8.10;92.00
77829;DHT22;67019;51.034;3.728;2023-02-23T19:20:57;8.10;92.00
77829;DHT22;67019;51.034;3.728;2023-02-23T19:23:26;8.10;91.40
77829;DHT22;67019;51.034;3.728;2023-02-23T19:25:52;8.20;91.20
77829;DHT22;67019;51.034;3.728;2023-02-23T19:28:19;8.20;91.60
77829;DHT22;67019;51.034;3.728;2023-02-23T19:30:47;8.10;91.30
77829;DHT22;67019;51.034;3.728;2023-02-23T19:33:14;8.10;91.50
77829;DHT22;67019;51.034;3.728;2023-02-23T19:35:42;8.10;91.40
77829;DHT22;67019;51.034;3.728;2023-02-23T19:38:11;8.00;91.70
77829;DHT22;67019;51.034;3.728;2023-02-23T19:40:40;8.00;91.60
77829;DHT22;67019;51.034;3.728;2023-02-23T19:43:11;7.90;91.80
77829;DHT22;67019;51.034;3.728;2023-02-23T19:45:38;7.90;92.00
77829;DHT22;67019;51.034;3.728;2023-02-23T19:48:10;7.90;91.40
77829;DHT22;67019;51.034;3.728;2023-02-23T19:50:37;7.70;91.20
77829;DHT22;67019;51.034;3.728;2023-02-23T19:53:04;7.60;91.20
77829;DHT22;67019;51.034;3.728;2023-02-23T19:55:32;7.50;91.10
77829;DHT22;67019;51.034;3.728;2023-02-23T19:58:00;7.60;90.90
77829;DHT22;67019;51.034;3.728;2023-02-23T20:00:35;7.50;90.50
77829;DHT22;67019;51.034;3.728;2023-02-23T20:03:00;7.50;90.60
77829;DHT22;67019;51.034;3.728;2023-02-23T20:05:28;7.60;90.60
77829;DHT22;67019;51.034;3.728;2023-02-23T20:07:56;7.60;90.70
77829;DHT22;67019;51.034;3.728;2023-02-23T20:10:22;7.70;90.20
77829;DHT22;67019;51.034;3.728;2023-02-23T20:12:51;7.60;90.00
77829;DHT22;67019;51.034;3.728;2023-02-23T20:15:18;7.60;89.30
77829;DHT22;67019;51.034;3.728;2023-02-23T20:17:45;7.60;89.00
77829;DHT22;67019;51.034;3.728;2023-02-23T20:20:12;7.60;89.10
77829;DHT22;67019;51.034;3.728;2023-02-23T20:22:42;7.50;88.90
77829;DHT22;67019;51.034;3.728;2023-02-23T20:25:10;7.50;89.10
77829;DHT22;67019;51.034;3.728;2023-02-23T20:27:39;7.70;88.40
77829;DHT22;67019;51.034;3.728;2023-02-23T20:30:06;7.50;88.50
77829;DHT22;67019;51.034;3.728;2023-02-23T20:32:33;7.50;89.20
77829;DHT22;67019;51.034;3.728;2023-02-23T20:35:00;7.60;88.60
77829;DHT22;67019;51.034;3.728;2023-02-23T20:37:27;7.50;88.40
77829;DHT22;67019;51.034;3.728;2023-02-23T20:39:55;7.60;87.40
77829;DHT22;67019;51.034;3.728;2023-02-23T20:42:23;7.60;86.70
77829;DHT22;67019;51.034;3.728;2023-02-23T20:44:52;7.50;86.60
77829;DHT22;67019;51.034;3.728;2023-02-23T20:47:19;7.50;86.80
77829;DHT22;67019;51.034;3.728;2023-02-23T20:49:47;7.60;88.00
77829;DHT22;67019;51.034;3.728;2023-02-23T20:52:14;7.80;86.30
77829;DHT22;67019;51.034;3.728;2023-02-23T20:54:41;7.60;85.30
77829;DHT22;67019;51.034;3.728;2023-02-23T20:57:08;7.30;87.20
77829;DHT22;67019;51.034;3.728;2023-02-23T20:59:35;7.20;87.20
77829;DHT22;67019;51.034;3.728;2023-02-23T21:02:03;7.30;86.00
77829;DHT22;67019;51.034;3.728;2023-02-23T21:04:33;7.40;85.20
77829;DHT22;67019;51.034;3.728;2023-02-23T21:07:00;7.40;84.80
77829;DHT22;67019;51.034;3.728;2023-02-23T21:09:29;7.30;85.20
77829;DHT22;67019;51.034;3.728;2023-02-23T21:11:58;7.20;84.40
77829;DHT22;67019;51.034;3.728;2023-02-23T21:14:36;7.10;85.90
77829;DHT22;67019;51.034;3.728;2023-02-23T21:17:04;7.20;84.90
77829;DHT22;67019;51.034;3.728;2023-02-23T21:19:34;7.20;84.00
77829;DHT22;67019;51.034;3.728;2023-02-23T21:22:04;7.10;85.40
77829;DHT22;67019;51.034;3.728;2023-02-23T21:24:37;7.10;84.20
77829;DHT22;67019;51.034;3.728;2023-02-23T21:27:06;7.10;83.40
77829;DHT22;67019;51.034;3.728;2023-02-23T21:29:39;7.00;83.20
77829;DHT22;67019;51.034;3.728;2023-02-23T21:32:12;6.80;84.70
77829;DHT22;67019;51.034;3.728;2023-02-23T21:34:38;6.70;84.00
77829;DHT22;67019;51.034;3.728;2023-02-23T21:37:08;6.80;83.80
77829;DHT22;67019;51.034;3.728;2023-02-23T21:39:38;6.90;84.20
77829;DHT22;67019;51.034;3.728;2023-02-23T21:42:06;6.90;84.60
77829;DHT22;67019;51.034;3.728;2023-02-23T21:44:36;7.00;83.30
77829;DHT22;67019;51.034;3.728;2023-02-23T21:47:07;6.90;83.00
77829;DHT22;67019;51.034;3.728;2023-02-23T21:49:38;6.90;84.30
77829;DHT22;67019;51.034;3.728;2023-02-23T21:52:07;7.00;83.60
77829;DHT22;67019;51.034;3.728;2023-02-23T21:54:41;7.10;82.80
77829;DHT22;67019;51.034;3.728;2023-02-23T21:57:06;6.90;83.10
77829;DHT22;67019;51.034;3.728;2023-02-23T21:59:35;7.00;83.10
77829;DHT22;67019;51.034;3.728;2023-02-23T22:02:05;6.90;82.60
77829;DHT22;67019;51.034;3.728;2023-02-23T22:04:37;7.00;82.70
77829;DHT22;67019;51.034;3.728;2023-02-23T22:07:09;6.90;82.50
77829;DHT22;67019;51.034;3.728;2023-02-23T22:09:36;7.00;82.10
77829;DHT22;67019;51.034;3.728;2023-02-23T22:12:04;7.00;82.00
77829;DHT22;67019;51.034;3.728;2023-02-23T22:14:32;7.10;81.60
77829;DHT22;67019;51.034;3.728;2023-02-23T22:17:08;7.20;81.10
77829;DHT22;67019;51.034;3.728;2023-02-23T22:19:31;7.30;80.70
77829;DHT22;67019;51.034;3.728;2023-02-23T22:22:02;7.30;80.90
77829;DHT22;67019;51.034;3.728;2023-02-23T22:24:39;7.20;81.10
77829;DHT22;67019;51.034;3.728;2023-02-23T22:27:03;7.30;80.50
77829;DHT22;67019;51.034;3.728;2023-02-23T22:29:32;7.40;80.60
77829;DHT22;67019;51.034;3.728;2023-02-23T22:31:59;7.30;80.30
77829;DHT22;67019;51.034;3.728;2023-02-23T22:34:25;7.20;80.70
77829;DHT22;67019;51.034;3.728;2023-02-23T22:36:53;5.70;80.10
77829;DHT22;67019;51.034;3.728;2023-02-23T22:39:20;7.20;81.60
77829;DHT22;67019;51.034;3.728;2023-02-23T22:41:47;7.20;81.40
77829;DHT22;67019;51.034;3.728;2023-02-23T22:44:17;7.20;82.10
77829;DHT22;67019;51.034;3.728;2023-02-23T22:46:45;7.50;80.20
77829;DHT22;67019;51.034;3.728;2023-02-23T22:49:14;7.60;80.20
77829;DHT22;67019;51.034;3.728;2023-02-23T22:51:43;7.60;80.90
77829;DHT22;67019;51.034;3.728;2023-02-23T22:54:13;7.50;80.80
77829;DHT22;67019;51.034;3.728;2023-02-23T22:56:42;7.50;81.10
77829;DHT22;67019;51.034;3.728;2023-02-23T22:59:09;7.50;80.80
77829;DHT22;67019;51.034;3.728;2023-02-23T23:01:36;7.40;81.70
77829;DHT22;67019;51.034;3.728;2023-02-23T23:04:06;7.50;81.10
77829;DHT22;67019;51.034;3.728;2023-02-23T23:06:39;7.40;80.80
77829;DHT22;67019;51.034;3.728;2023-02-23T23:09:03;7.50;81.40
77829;DHT22;67019;51.034;3.728;2023-02-23T23:11:32;7.60;79.80
77829;DHT22;67019;51.034;3.728;2023-02-23T23:14:01;7.40;79.30
77829;DHT22;67019;51.034;3.728;2023-02-23T23:16:30;7.30;79.10
77829;DHT22;67019;51.034;3.728;2023-02-23T23:19:02;7.20;78.90
77829;DHT22;67019;51.034;3.728;2023-02-23T23:21:30;7.10;80.10
77829;DHT22;67019;51.034;3.728;2023-02-23T23:23:58;7.10;79.40
77829;DHT22;67019;51.034;3.728;2023-02-23T23:26:26;6.90;79.80
77829;DHT22;67019;51.034;3.728;2023-02-23T23:28:55;6.90;79.50
77829;DHT22;67019;51.034;3.728;2023-02-23T23:31:23;6.90;79.60
77829;DHT22;67019;51.034;3.728;2023-02-23T23:33:53;6.90;79.30
77829;DHT22;67019;51.034;3.728;2023-02-23T23:36:21;6.80;79.80
77829;DHT22;67019;51.034;3.728;2023-02-23T23:38:49;6.60;80.40